sensor_id;sensor_type;location;lat;lon;timestamp;P1;durP1;ratioP1;P2;durP2;ratioP2
4232;SDS011;2130;48.472;11.934;2023-01-08T00:02:05;14.13;;;2.70;;
4232;SDS011;2130;48.472;11.934;2023-01-08T00:04:34;14.00;;;2.57;;
4232;SDS011;2130;48.472;11.934;2023-01-08T00:07:03;12.27;;;2.30;;
4232;SDS011;2130;48.472;11.934;2023-01-08T00:09:31;14.20;;;2.73;;
4232;SDS011;2130;48.472;11.934;2023-01-08T00:12:01;12.57;;;2.13;;
4232;SDS011;2130;48.472;11.934;2023-01-08T00:17:25;11.20;;;1.50;;
4232;SDS011;2130;48.472;11.934;2023-01-08T00:19:54;13.80;;;1.90;;
4232;SDS011;2130;48.472;11.934;2023-01-08T00:22:23;12.53;;;1.80;;
4232;SDS011;2130;48.472;11.934;2023-01-08T00:24:52;11.63;;;2.17;;
4232;SDS011;2130;48.472;11.934;2023-01-08T00:27:21;11.70;;;2.20;;
4232;SDS011;2130;48.472;11.934;2023-01-08T00:29:53;12.53;;;2.07;;
4232;SDS011;2130;48.472;11.934;2023-01-08T00:32:22;11.17;;;1.70;;
4232;SDS011;2130;48.472;11.934;2023-01-08T00:34:53;11.43;;;1.70;;
4232;SDS011;2130;48.472;11.934;2023-01-08T00:37:31;13.10;;;2.60;;
4232;SDS011;2130;48.472;11.934;2023-01-08T00:40:01;17.73;;;2.80;;
4232;SDS011;2130;48.472;11.934;2023-01-08T00:42:30;13.90;;;3.30;;
4232;SDS011;2130;48.472;11.934;2023-01-08T00:44:59;13.80;;;2.80;;
4232;SDS011;2130;48.472;11.934;2023-01-08T00:47:28;15.03;;;3.27;;
4232;SDS011;2130;48.472;11.934;2023-01-08T00:49:58;13.03;;;2.87;;
4232;SDS011;2130;48.472;11.934;2023-01-08T00:52:27;12.97;;;2.37;;
4232;SDS011;2130;48.472;11.934;2023-01-08T00:54:59;13.50;;;2.93;;
4232;SDS011;2130;48.472;11.934;2023-01-08T00:57:31;12.00;;;2.10;;
4232;SDS011;2130;48.472;11.934;2023-01-08T01:00:01;13.40;;;2.70;;
4232;SDS011;2130;48.472;11.934;2023-01-08T01:05:33;13.47;;;2.50;;
4232;SDS011;2130;48.472;11.934;2023-01-08T01:08:03;21.30;;;3.47;;
4232;SDS011;2130;48.472;11.934;2023-01-08T01:10:32;14.40;;;2.73;;
4232;SDS011;2130;48.472;11.934;2023-01-08T01:13:01;13.40;;;3.00;;
4232;SDS011;2130;48.472;11.934;2023-01-08T01:15:30;14.73;;;2.33;;
4232;SDS011;2130;48.472;11.934;2023-01-08T01:18:07;13.57;;;2.33;;
4232;SDS011;2130;48.472;11.934;2023-01-08T01:20:40;14.60;;;2.63;;
4232;SDS011;2130;48.472;11.934;2023-01-08T01:23:23;15.73;;;2.83;;
4232;SDS011;2130;48.472;11.934;2023-01-08T01:25:52;13.50;;;2.20;;
4232;SDS011;2130;48.472;11.934;2023-01-08T01:28:21;14.10;;;2.07;;
4232;SDS011;2130;48.472;11.934;2023-01-08T01:30:57;13.23;;;2.10;;
4232;SDS011;2130;48.472;11.934;2023-01-08T01:33:35;25.30;;;3.00;;
4232;SDS011;2130;48.472;11.934;2023-01-08T01:36:12;13.80;;;2.60;;
4232;SDS011;2130;48.472;11.934;2023-01-08T01:38:42;14.90;;;2.67;;
4232;SDS011;2130;48.472;11.934;2023-01-08T01:41:17;17.40;;;3.10;;
4232;SDS011;2130;48.472;11.934;2023-01-08T01:43:51;16.80;;;3.13;;
4232;SDS011;2130;48.472;11.934;2023-01-08T01:46:23;21.03;;;3.10;;
4232;SDS011;2130;48.472;11.934;2023-01-08T01:49:02;16.10;;;3.13;;
4232;SDS011;2130;48.472;11.934;2023-01-08T01:51:40;18.47;;;2.80;;
4232;SDS011;2130;48.472;11.934;2023-01-08T01:54:12;13.00;;;2.07;;
4232;SDS011;2130;48.472;11.934;2023-01-08T01:56:41;15.37;;;3.03;;
4232;SDS011;2130;48.472;11.934;2023-01-08T01:59:11;20.67;;;4.07;;
4232;SDS011;2130;48.472;11.934;2023-01-08T02:01:41;18.30;;;3.60;;
4232;SDS011;2130;48.472;11.934;2023-01-08T02:04:23;19.00;;;3.20;;
4232;SDS011;2130;48.472;11.934;2023-01-08T02:06:56;16.10;;;3.00;;
4232;SDS011;2130;48.472;11.934;2023-01-08T02:09:30;19.33;;;4.83;;
4232;SDS011;2130;48.472;11.934;2023-01-08T02:12:09;20.33;;;3.73;;
4232;SDS011;2130;48.472;11.934;2023-01-08T02:14:50;19.93;;;3.40;;
4232;SDS011;2130;48.472;11.934;2023-01-08T02:17:25;17.03;;;2.80;;
4232;SDS011;2130;48.472;11.934;2023-01-08T02:20:09;15.30;;;2.83;;
4232;SDS011;2130;48.472;11.934;2023-01-08T02:22:45;18.37;;;3.00;;
4232;SDS011;2130;48.472;11.934;2023-01-08T02:25:34;13.97;;;1.97;;
4232;SDS011;2130;48.472;11.934;2023-01-08T02:28:16;13.90;;;2.10;;
4232;SDS011;2130;48.472;11.934;2023-01-08T02:30:45;14.37;;;2.77;;
4232;SDS011;2130;48.472;11.934;2023-01-08T02:33:40;14.37;;;2.27;;
4232;SDS011;2130;48.472;11.934;2023-01-08T02:39:25;14.00;;;1.83;;
4232;SDS011;2130;48.472;11.934;2023-01-08T02:42:04;13.87;;;1.87;;
4232;SDS011;2130;48.472;11.934;2023-01-08T02:44:39;15.27;;;1.97;;
4232;SDS011;2130;48.472;11.934;2023-01-08T02:47:15;14.83;;;1.87;;
4232;SDS011;2130;48.472;11.934;2023-01-08T02:49:49;17.40;;;2.37;;
4232;SDS011;2130;48.472;11.934;2023-01-08T02:52:20;13.90;;;2.50;;
4232;SDS011;2130;48.472;11.934;2023-01-08T02:54:51;14.40;;;2.30;;
4232;SDS011;2130;48.472;11.934;2023-01-08T02:57:21;15.77;;;2.73;;
4232;SDS011;2130;48.472;11.934;2023-01-08T02:59:59;14.27;;;2.20;;
4232;SDS011;2130;48.472;11.934;2023-01-08T03:02:34;15.60;;;2.63;;
4232;SDS011;2130;48.472;11.934;2023-01-08T03:05:05;13.50;;;2.00;;
4232;SDS011;2130;48.472;11.934;2023-01-08T03:07:37;14.00;;;2.13;;
4232;SDS011;2130;48.472;11.934;2023-01-08T03:10:10;19.80;;;3.40;;
4232;SDS011;2130;48.472;11.934;2023-01-08T03:12:43;15.27;;;2.50;;
4232;SDS011;2130;48.472;11.934;2023-01-08T03:15:15;13.80;;;2.00;;
4232;SDS011;2130;48.472;11.934;2023-01-08T03:17:49;16.23;;;2.63;;
4232;SDS011;2130;48.472;11.934;2023-01-08T03:20:19;14.20;;;2.70;;
4232;SDS011;2130;48.472;11.934;2023-01-08T03:22:50;13.27;;;1.90;;
4232;SDS011;2130;48.472;11.934;2023-01-08T03:25:22;14.10;;;2.13;;
4232;SDS011;2130;48.472;11.934;2023-01-08T03:27:53;14.67;;;2.40;;
4232;SDS011;2130;48.472;11.934;2023-01-08T03:30:26;13.80;;;1.90;;
4232;SDS011;2130;48.472;11.934;2023-01-08T03:32:56;14.03;;;1.80;;
4232;SDS011;2130;48.472;11.934;2023-01-08T03:35:27;14.17;;;2.10;;
4232;SDS011;2130;48.472;11.934;2023-01-08T03:38:02;14.70;;;2.57;;
4232;SDS011;2130;48.472;11.934;2023-01-08T03:40:34;12.63;;;1.40;;
4232;SDS011;2130;48.472;11.934;2023-01-08T03:43:07;13.57;;;1.57;;
4232;SDS011;2130;48.472;11.934;2023-01-08T03:46:09;13.13;;;1.93;;
4232;SDS011;2130;48.472;11.934;2023-01-08T03:48:42;13.43;;;1.70;;
4232;SDS011;2130;48.472;11.934;2023-01-08T03:51:11;13.67;;;1.73;;
4232;SDS011;2130;48.472;11.934;2023-01-08T03:53:45;14.43;;;2.50;;
4232;SDS011;2130;48.472;11.934;2023-01-08T03:56:15;14.23;;;2.20;;
4232;SDS011;2130;48.472;11.934;2023-01-08T03:58:44;14.60;;;1.50;;
4232;SDS011;2130;48.472;11.934;2023-01-08T04:01:29;14.70;;;2.70;;
4232;SDS011;2130;48.472;11.934;2023-01-08T04:03:58;13.80;;;1.67;;
4232;SDS011;2130;48.472;11.934;2023-01-08T04:07:12;13.80;;;1.63;;
4232;SDS011;2130;48.472;11.934;2023-01-08T04:09:50;14.03;;;1.80;;
4232;SDS011;2130;48.472;11.934;2023-01-08T04:12:20;13.27;;;1.33;;
4232;SDS011;2130;48.472;11.934;2023-01-08T04:14:50;15.70;;;2.10;;
4232;SDS011;2130;48.472;11.934;2023-01-08T04:17:21;14.57;;;2.40;;
4232;SDS011;2130;48.472;11.934;2023-01-08T04:19:50;14.57;;;2.13;;
4232;SDS011;2130;48.472;11.934;2023-01-08T04:22:19;13.50;;;2.13;;
4232;SDS011;2130;48.472;11.934;2023-01-08T04:24:48;15.27;;;2.07;;
4232;SDS011;2130;48.472;11.934;2023-01-08T04:27:17;14.37;;;2.03;;
4232;SDS011;2130;48.472;11.934;2023-01-08T04:29:46;14.93;;;2.10;;
4232;SDS011;2130;48.472;11.934;2023-01-08T04:32:14;13.00;;;1.80;;
4232;SDS011;2130;48.472;11.934;2023-01-08T04:34:45;13.70;;;1.70;;
4232;SDS011;2130;48.472;11.934;2023-01-08T04:37:20;14.47;;;2.43;;
4232;SDS011;2130;48.472;11.934;2023-01-08T04:39:49;13.93;;;1.87;;
4232;SDS011;2130;48.472;11.934;2023-01-08T04:42:18;13.50;;;1.90;;
4232;SDS011;2130;48.472;11.934;2023-01-08T04:44:47;14.17;;;1.90;;
4232;SDS011;2130;48.472;11.934;2023-01-08T04:47:17;14.43;;;1.80;;
4232;SDS011;2130;48.472;11.934;2023-01-08T04:50:18;15.63;;;2.10;;
4232;SDS011;2130;48.472;11.934;2023-01-08T04:52:47;17.50;;;2.27;;
4232;SDS011;2130;48.472;11.934;2023-01-08T04:55:16;13.97;;;1.93;;
4232;SDS011;2130;48.472;11.934;2023-01-08T04:57:45;15.87;;;2.07;;
4232;SDS011;2130;48.472;11.934;2023-01-08T05:00:15;20.17;;;1.90;;
4232;SDS011;2130;48.472;11.934;2023-01-08T05:02:44;14.70;;;2.00;;
4232;SDS011;2130;48.472;11.934;2023-01-08T05:05:18;14.07;;;2.40;;
4232;SDS011;2130;48.472;11.934;2023-01-08T05:07:47;14.70;;;2.27;;
4232;SDS011;2130;48.472;11.934;2023-01-08T05:10:20;16.03;;;2.47;;
4232;SDS011;2130;48.472;11.934;2023-01-08T05:12:49;14.90;;;2.10;;
4232;SDS011;2130;48.472;11.934;2023-01-08T05:15:18;21.70;;;2.50;;
4232;SDS011;2130;48.472;11.934;2023-01-08T05:17:47;17.30;;;1.93;;
4232;SDS011;2130;48.472;11.934;2023-01-08T05:20:17;14.30;;;2.30;;
4232;SDS011;2130;48.472;11.934;2023-01-08T05:22:50;14.93;;;1.97;;
4232;SDS011;2130;48.472;11.934;2023-01-08T05:25:19;13.20;;;1.97;;
4232;SDS011;2130;48.472;11.934;2023-01-08T05:27:49;13.37;;;2.00;;
4232;SDS011;2130;48.472;11.934;2023-01-08T05:30:17;15.70;;;2.43;;
4232;SDS011;2130;48.472;11.934;2023-01-08T05:32:47;14.27;;;2.07;;
4232;SDS011;2130;48.472;11.934;2023-01-08T05:35:20;13.57;;;1.67;;
4232;SDS011;2130;48.472;11.934;2023-01-08T05:37:50;13.70;;;2.20;;
4232;SDS011;2130;48.472;11.934;2023-01-08T05:40:19;14.57;;;2.43;;
4232;SDS011;2130;48.472;11.934;2023-01-08T05:42:48;16.13;;;2.33;;
4232;SDS011;2130;48.472;11.934;2023-01-08T05:45:21;14.53;;;2.43;;
4232;SDS011;2130;48.472;11.934;2023-01-08T05:47:50;13.70;;;2.10;;
4232;SDS011;2130;48.472;11.934;2023-01-08T05:50:21;14.07;;;2.20;;
4232;SDS011;2130;48.472;11.934;2023-01-08T05:52:50;13.83;;;1.47;;
4232;SDS011;2130;48.472;11.934;2023-01-08T05:55:19;14.03;;;2.00;;
4232;SDS011;2130;48.472;11.934;2023-01-08T05:57:48;13.30;;;1.47;;
4232;SDS011;2130;48.472;11.934;2023-01-08T06:00:17;14.13;;;1.93;;
4232;SDS011;2130;48.472;11.934;2023-01-08T06:02:46;13.10;;;1.60;;
4232;SDS011;2130;48.472;11.934;2023-01-08T06:05:24;14.60;;;2.40;;
4232;SDS011;2130;48.472;11.934;2023-01-08T06:07:54;14.10;;;2.03;;
4232;SDS011;2130;48.472;11.934;2023-01-08T06:10:25;15.00;;;2.50;;
4232;SDS011;2130;48.472;11.934;2023-01-08T06:12:55;13.83;;;2.20;;
4232;SDS011;2130;48.472;11.934;2023-01-08T06:15:24;14.20;;;1.73;;
4232;SDS011;2130;48.472;11.934;2023-01-08T06:17:53;14.40;;;2.40;;
4232;SDS011;2130;48.472;11.934;2023-01-08T06:20:25;14.20;;;2.50;;
4232;SDS011;2130;48.472;11.934;2023-01-08T06:22:54;14.57;;;2.13;;
4232;SDS011;2130;48.472;11.934;2023-01-08T06:25:28;14.10;;;1.80;;
4232;SDS011;2130;48.472;11.934;2023-01-08T06:27:57;13.53;;;1.77;;
4232;SDS011;2130;48.472;11.934;2023-01-08T06:30:29;12.67;;;1.73;;
4232;SDS011;2130;48.472;11.934;2023-01-08T06:33:02;13.43;;;2.37;;
4232;SDS011;2130;48.472;11.934;2023-01-08T06:35:35;13.10;;;1.90;;
4232;SDS011;2130;48.472;11.934;2023-01-08T06:38:25;14.43;;;2.40;;
4232;SDS011;2130;48.472;11.934;2023-01-08T06:41:02;13.10;;;1.70;;
4232;SDS011;2130;48.472;11.934;2023-01-08T06:43:35;15.73;;;1.93;;
4232;SDS011;2130;48.472;11.934;2023-01-08T06:46:05;13.67;;;1.80;;
4232;SDS011;2130;48.472;11.934;2023-01-08T06:48:35;14.47;;;2.10;;
4232;SDS011;2130;48.472;11.934;2023-01-08T06:51:06;13.93;;;2.50;;
4232;SDS011;2130;48.472;11.934;2023-01-08T06:53:35;15.63;;;2.40;;
4232;SDS011;2130;48.472;11.934;2023-01-08T06:56:04;14.30;;;1.70;;
4232;SDS011;2130;48.472;11.934;2023-01-08T06:58:37;14.77;;;1.90;;
4232;SDS011;2130;48.472;11.934;2023-01-08T07:01:11;13.67;;;2.07;;
4232;SDS011;2130;48.472;11.934;2023-01-08T07:03:42;19.23;;;2.87;;
4232;SDS011;2130;48.472;11.934;2023-01-08T07:06:13;15.23;;;2.20;;
4232;SDS011;2130;48.472;11.934;2023-01-08T07:08:43;14.40;;;2.37;;
4232;SDS011;2130;48.472;11.934;2023-01-08T07:11:12;14.50;;;1.90;;
4232;SDS011;2130;48.472;11.934;2023-01-08T07:13:41;14.33;;;1.97;;
4232;SDS011;2130;48.472;11.934;2023-01-08T07:16:11;15.20;;;2.07;;
4232;SDS011;2130;48.472;11.934;2023-01-08T07:18:41;13.40;;;2.20;;
4232;SDS011;2130;48.472;11.934;2023-01-08T07:21:12;14.13;;;2.03;;
4232;SDS011;2130;48.472;11.934;2023-01-08T07:23:42;14.00;;;2.10;;
4232;SDS011;2130;48.472;11.934;2023-01-08T07:26:13;13.67;;;2.00;;
4232;SDS011;2130;48.472;11.934;2023-01-08T07:28:42;15.27;;;2.53;;
4232;SDS011;2130;48.472;11.934;2023-01-08T07:31:11;15.87;;;2.50;;
4232;SDS011;2130;48.472;11.934;2023-01-08T07:33:40;12.80;;;1.50;;
4232;SDS011;2130;48.472;11.934;2023-01-08T07:36:09;15.63;;;2.30;;
4232;SDS011;2130;48.472;11.934;2023-01-08T07:38:43;14.50;;;2.10;;
4232;SDS011;2130;48.472;11.934;2023-01-08T07:41:12;14.23;;;1.70;;
4232;SDS011;2130;48.472;11.934;2023-01-08T07:43:42;13.70;;;2.00;;
4232;SDS011;2130;48.472;11.934;2023-01-08T07:46:11;15.00;;;2.20;;
4232;SDS011;2130;48.472;11.934;2023-01-08T07:48:42;16.10;;;2.03;;
4232;SDS011;2130;48.472;11.934;2023-01-08T07:51:11;15.40;;;2.30;;
4232;SDS011;2130;48.472;11.934;2023-01-08T07:53:42;13.60;;;2.27;;
4232;SDS011;2130;48.472;11.934;2023-01-08T07:56:11;16.13;;;2.80;;
4232;SDS011;2130;48.472;11.934;2023-01-08T07:58:40;13.40;;;1.97;;
4232;SDS011;2130;48.472;11.934;2023-01-08T08:01:20;14.33;;;2.40;;
4232;SDS011;2130;48.472;11.934;2023-01-08T08:03:50;14.17;;;2.10;;
4232;SDS011;2130;48.472;11.934;2023-01-08T08:06:19;16.37;;;2.60;;
4232;SDS011;2130;48.472;11.934;2023-01-08T08:08:50;14.43;;;2.67;;
4232;SDS011;2130;48.472;11.934;2023-01-08T08:11:18;14.90;;;2.50;;
4232;SDS011;2130;48.472;11.934;2023-01-08T08:13:48;16.60;;;3.47;;
4232;SDS011;2130;48.472;11.934;2023-01-08T08:16:20;13.70;;;2.10;;
4232;SDS011;2130;48.472;11.934;2023-01-08T08:18:52;15.10;;;2.67;;
4232;SDS011;2130;48.472;11.934;2023-01-08T08:21:21;14.53;;;2.60;;
4232;SDS011;2130;48.472;11.934;2023-01-08T08:23:52;14.57;;;2.30;;
4232;SDS011;2130;48.472;11.934;2023-01-08T08:26:23;14.50;;;2.60;;
4232;SDS011;2130;48.472;11.934;2023-01-08T08:28:52;15.33;;;2.40;;
4232;SDS011;2130;48.472;11.934;2023-01-08T08:31:21;14.67;;;2.30;;
4232;SDS011;2130;48.472;11.934;2023-01-08T08:33:50;14.40;;;2.40;;
4232;SDS011;2130;48.472;11.934;2023-01-08T08:36:20;14.47;;;2.10;;
4232;SDS011;2130;48.472;11.934;2023-01-08T08:38:49;15.50;;;3.50;;
4232;SDS011;2130;48.472;11.934;2023-01-08T08:41:19;15.47;;;2.47;;
4232;SDS011;2130;48.472;11.934;2023-01-08T08:43:48;15.77;;;2.07;;
4232;SDS011;2130;48.472;11.934;2023-01-08T08:46:18;15.17;;;3.07;;
4232;SDS011;2130;48.472;11.934;2023-01-08T08:48:46;15.30;;;2.80;;
4232;SDS011;2130;48.472;11.934;2023-01-08T08:51:15;15.97;;;2.90;;
4232;SDS011;2130;48.472;11.934;2023-01-08T08:53:53;18.70;;;3.63;;
4232;SDS011;2130;48.472;11.934;2023-01-08T08:56:24;14.33;;;2.37;;
4232;SDS011;2130;48.472;11.934;2023-01-08T08:58:55;15.30;;;2.60;;
4232;SDS011;2130;48.472;11.934;2023-01-08T09:01:25;13.87;;;2.00;;
4232;SDS011;2130;48.472;11.934;2023-01-08T09:03:54;15.10;;;2.70;;
4232;SDS011;2130;48.472;11.934;2023-01-08T09:06:25;16.23;;;2.90;;
4232;SDS011;2130;48.472;11.934;2023-01-08T09:08:55;15.47;;;2.60;;
4232;SDS011;2130;48.472;11.934;2023-01-08T09:11:25;15.33;;;2.37;;
4232;SDS011;2130;48.472;11.934;2023-01-08T09:14:03;13.77;;;2.63;;
4232;SDS011;2130;48.472;11.934;2023-01-08T09:16:32;14.00;;;2.20;;
4232;SDS011;2130;48.472;11.934;2023-01-08T09:19:03;13.47;;;2.17;;
4232;SDS011;2130;48.472;11.934;2023-01-08T09:21:34;15.73;;;2.70;;
4232;SDS011;2130;48.472;11.934;2023-01-08T09:24:05;14.97;;;2.20;;
4232;SDS011;2130;48.472;11.934;2023-01-08T09:26:36;14.20;;;2.70;;
4232;SDS011;2130;48.472;11.934;2023-01-08T09:29:05;15.30;;;2.90;;
4232;SDS011;2130;48.472;11.934;2023-01-08T09:31:35;15.70;;;2.70;;
4232;SDS011;2130;48.472;11.934;2023-01-08T09:34:04;15.43;;;2.63;;
4232;SDS011;2130;48.472;11.934;2023-01-08T09:36:33;14.23;;;2.47;;
4232;SDS011;2130;48.472;11.934;2023-01-08T09:39:03;14.50;;;2.70;;
4232;SDS011;2130;48.472;11.934;2023-01-08T09:41:32;12.63;;;2.07;;
4232;SDS011;2130;48.472;11.934;2023-01-08T09:44:03;13.33;;;2.30;;
4232;SDS011;2130;48.472;11.934;2023-01-08T09:46:40;13.60;;;2.17;;
4232;SDS011;2130;48.472;11.934;2023-01-08T09:49:10;12.70;;;2.10;;
4232;SDS011;2130;48.472;11.934;2023-01-08T09:51:42;12.60;;;1.67;;
4232;SDS011;2130;48.472;11.934;2023-01-08T09:54:12;13.37;;;2.30;;
4232;SDS011;2130;48.472;11.934;2023-01-08T09:56:42;12.33;;;1.90;;
4232;SDS011;2130;48.472;11.934;2023-01-08T09:59:17;11.60;;;1.53;;
4232;SDS011;2130;48.472;11.934;2023-01-08T10:01:49;12.40;;;1.50;;
4232;SDS011;2130;48.472;11.934;2023-01-08T10:04:20;15.77;;;1.50;;
4232;SDS011;2130;48.472;11.934;2023-01-08T10:06:51;11.20;;;1.60;;
4232;SDS011;2130;48.472;11.934;2023-01-08T10:09:23;12.00;;;1.80;;
4232;SDS011;2130;48.472;11.934;2023-01-08T10:11:54;11.03;;;1.80;;
4232;SDS011;2130;48.472;11.934;2023-01-08T10:14:27;11.73;;;1.87;;
4232;SDS011;2130;48.472;11.934;2023-01-08T10:16:59;10.57;;;1.57;;
4232;SDS011;2130;48.472;11.934;2023-01-08T10:19:37;11.90;;;1.90;;
4232;SDS011;2130;48.472;11.934;2023-01-08T10:22:08;10.87;;;1.63;;
4232;SDS011;2130;48.472;11.934;2023-01-08T10:24:38;11.60;;;2.10;;
4232;SDS011;2130;48.472;11.934;2023-01-08T10:27:08;11.50;;;1.80;;
4232;SDS011;2130;48.472;11.934;2023-01-08T10:29:42;10.93;;;2.07;;
4232;SDS011;2130;48.472;11.934;2023-01-08T10:32:13;11.63;;;2.13;;
4232;SDS011;2130;48.472;11.934;2023-01-08T10:34:52;12.33;;;2.00;;
4232;SDS011;2130;48.472;11.934;2023-01-08T10:37:25;10.80;;;1.47;;
4232;SDS011;2130;48.472;11.934;2023-01-08T10:39:57;11.50;;;1.77;;
4232;SDS011;2130;48.472;11.934;2023-01-08T10:42:32;14.37;;;2.63;;
4232;SDS011;2130;48.472;11.934;2023-01-08T10:45:03;11.00;;;2.20;;
4232;SDS011;2130;48.472;11.934;2023-01-08T10:47:35;9.80;;;2.00;;
4232;SDS011;2130;48.472;11.934;2023-01-08T10:50:12;12.03;;;2.13;;
4232;SDS011;2130;48.472;11.934;2023-01-08T10:52:50;11.63;;;2.03;;
4232;SDS011;2130;48.472;11.934;2023-01-08T10:55:21;11.93;;;1.60;;
4232;SDS011;2130;48.472;11.934;2023-01-08T10:57:55;9.87;;;2.10;;
4232;SDS011;2130;48.472;11.934;2023-01-08T11:00:28;9.90;;;2.40;;
4232;SDS011;2130;48.472;11.934;2023-01-08T11:02:58;10.20;;;2.13;;
4232;SDS011;2130;48.472;11.934;2023-01-08T11:05:29;9.83;;;1.90;;
4232;SDS011;2130;48.472;11.934;2023-01-08T11:07:59;8.93;;;1.80;;
4232;SDS011;2130;48.472;11.934;2023-01-08T11:10:31;8.83;;;1.70;;
4232;SDS011;2130;48.472;11.934;2023-01-08T11:13:02;7.87;;;1.60;;
4232;SDS011;2130;48.472;11.934;2023-01-08T11:15:38;8.27;;;1.63;;
4232;SDS011;2130;48.472;11.934;2023-01-08T11:18:12;7.73;;;1.57;;
4232;SDS011;2130;48.472;11.934;2023-01-08T11:20:47;9.50;;;1.70;;
4232;SDS011;2130;48.472;11.934;2023-01-08T11:23:20;7.50;;;1.50;;
4232;SDS011;2130;48.472;11.934;2023-01-08T11:25:51;7.43;;;1.37;;
4232;SDS011;2130;48.472;11.934;2023-01-08T11:28:26;7.80;;;1.50;;
4232;SDS011;2130;48.472;11.934;2023-01-08T11:31:01;8.37;;;1.67;;
4232;SDS011;2130;48.472;11.934;2023-01-08T11:33:53;8.60;;;1.70;;
4232;SDS011;2130;48.472;11.934;2023-01-08T11:36:26;7.70;;;1.80;;
4232;SDS011;2130;48.472;11.934;2023-01-08T11:39:00;7.60;;;1.80;;
4232;SDS011;2130;48.472;11.934;2023-01-08T11:41:34;8.03;;;1.60;;
4232;SDS011;2130;48.472;11.934;2023-01-08T11:44:16;8.23;;;2.10;;
4232;SDS011;2130;48.472;11.934;2023-01-08T11:46:53;10.43;;;1.90;;
4232;SDS011;2130;48.472;11.934;2023-01-08T11:49:31;7.10;;;1.20;;
4232;SDS011;2130;48.472;11.934;2023-01-08T11:52:10;7.50;;;1.50;;
4232;SDS011;2130;48.472;11.934;2023-01-08T11:54:50;7.13;;;1.73;;
4232;SDS011;2130;48.472;11.934;2023-01-08T11:57:31;9.17;;;1.77;;
4232;SDS011;2130;48.472;11.934;2023-01-08T12:00:14;8.57;;;2.03;;
4232;SDS011;2130;48.472;11.934;2023-01-08T12:02:53;8.17;;;1.70;;
4232;SDS011;2130;48.472;11.934;2023-01-08T12:05:32;6.90;;;1.77;;
4232;SDS011;2130;48.472;11.934;2023-01-08T12:08:03;9.17;;;2.50;;
4232;SDS011;2130;48.472;11.934;2023-01-08T12:10:50;6.37;;;1.40;;
4232;SDS011;2130;48.472;11.934;2023-01-08T12:13:29;6.50;;;1.23;;
4232;SDS011;2130;48.472;11.934;2023-01-08T12:16:10;6.00;;;1.27;;
4232;SDS011;2130;48.472;11.934;2023-01-08T12:18:52;6.40;;;1.30;;
4232;SDS011;2130;48.472;11.934;2023-01-08T12:21:30;6.73;;;1.67;;
4232;SDS011;2130;48.472;11.934;2023-01-08T12:24:10;6.60;;;1.50;;
4232;SDS011;2130;48.472;11.934;2023-01-08T12:26:47;6.87;;;1.70;;
4232;SDS011;2130;48.472;11.934;2023-01-08T12:29:29;5.97;;;1.63;;
4232;SDS011;2130;48.472;11.934;2023-01-08T12:32:15;8.10;;;1.93;;
4232;SDS011;2130;48.472;11.934;2023-01-08T12:34:50;6.20;;;1.43;;
4232;SDS011;2130;48.472;11.934;2023-01-08T12:37:25;5.97;;;1.50;;
4232;SDS011;2130;48.472;11.934;2023-01-08T12:39:57;7.37;;;1.30;;
4232;SDS011;2130;48.472;11.934;2023-01-08T12:42:33;9.90;;;2.10;;
4232;SDS011;2130;48.472;11.934;2023-01-08T12:45:06;7.90;;;1.60;;
4232;SDS011;2130;48.472;11.934;2023-01-08T12:47:42;6.13;;;1.83;;
4232;SDS011;2130;48.472;11.934;2023-01-08T12:50:21;5.37;;;1.80;;
4232;SDS011;2130;48.472;11.934;2023-01-08T12:52:57;5.70;;;1.70;;
4232;SDS011;2130;48.472;11.934;2023-01-08T12:55:32;7.47;;;1.70;;
4232;SDS011;2130;48.472;11.934;2023-01-08T13:01:06;5.87;;;1.30;;
4232;SDS011;2130;48.472;11.934;2023-01-08T13:03:44;5.93;;;1.57;;
4232;SDS011;2130;48.472;11.934;2023-01-08T13:06:17;4.53;;;1.23;;
4232;SDS011;2130;48.472;11.934;2023-01-08T13:08:47;4.90;;;1.60;;
4232;SDS011;2130;48.472;11.934;2023-01-08T13:11:23;5.87;;;1.77;;
4232;SDS011;2130;48.472;11.934;2023-01-08T13:14:01;5.93;;;1.80;;
4232;SDS011;2130;48.472;11.934;2023-01-08T13:16:36;5.27;;;2.00;;
4232;SDS011;2130;48.472;11.934;2023-01-08T13:19:07;7.30;;;2.30;;
4232;SDS011;2130;48.472;11.934;2023-01-08T13:21:52;6.90;;;1.87;;
4232;SDS011;2130;48.472;11.934;2023-01-08T13:24:23;6.60;;;1.97;;
4232;SDS011;2130;48.472;11.934;2023-01-08T13:26:56;7.13;;;2.37;;
4232;SDS011;2130;48.472;11.934;2023-01-08T13:29:34;7.10;;;2.30;;
4232;SDS011;2130;48.472;11.934;2023-01-08T13:35:01;6.10;;;1.80;;
4232;SDS011;2130;48.472;11.934;2023-01-08T13:37:38;7.33;;;2.03;;
4232;SDS011;2130;48.472;11.934;2023-01-08T13:43:04;6.10;;;1.70;;
4232;SDS011;2130;48.472;11.934;2023-01-08T13:45:51;7.90;;;2.00;;
4232;SDS011;2130;48.472;11.934;2023-01-08T13:48:46;8.73;;;2.00;;
4232;SDS011;2130;48.472;11.934;2023-01-08T13:51:24;6.40;;;1.57;;
4232;SDS011;2130;48.472;11.934;2023-01-08T13:54:04;6.97;;;2.23;;
4232;SDS011;2130;48.472;11.934;2023-01-08T13:56:43;9.37;;;3.33;;
4232;SDS011;2130;48.472;11.934;2023-01-08T13:59:16;5.97;;;1.50;;
4232;SDS011;2130;48.472;11.934;2023-01-08T14:01:51;7.10;;;1.70;;
4232;SDS011;2130;48.472;11.934;2023-01-08T14:04:23;6.20;;;1.83;;
4232;SDS011;2130;48.472;11.934;2023-01-08T14:06:52;5.43;;;1.67;;
4232;SDS011;2130;48.472;11.934;2023-01-08T14:09:22;5.83;;;1.87;;
4232;SDS011;2130;48.472;11.934;2023-01-08T14:11:53;4.57;;;1.20;;
4232;SDS011;2130;48.472;11.934;2023-01-08T14:14:22;4.93;;;1.30;;
4232;SDS011;2130;48.472;11.934;2023-01-08T14:16:52;5.43;;;1.67;;
4232;SDS011;2130;48.472;11.934;2023-01-08T14:22:17;6.20;;;1.63;;
4232;SDS011;2130;48.472;11.934;2023-01-08T14:24:52;7.90;;;1.80;;
4232;SDS011;2130;48.472;11.934;2023-01-08T14:27:23;5.40;;;1.60;;
4232;SDS011;2130;48.472;11.934;2023-01-08T14:29:56;6.23;;;1.53;;
4232;SDS011;2130;48.472;11.934;2023-01-08T14:32:30;5.20;;;1.73;;
4232;SDS011;2130;48.472;11.934;2023-01-08T14:35:13;8.87;;;1.87;;
4232;SDS011;2130;48.472;11.934;2023-01-08T14:37:44;7.10;;;1.70;;
4232;SDS011;2130;48.472;11.934;2023-01-08T14:40:15;6.47;;;2.10;;
4232;SDS011;2130;48.472;11.934;2023-01-08T14:42:44;6.93;;;2.20;;
4232;SDS011;2130;48.472;11.934;2023-01-08T14:45:20;6.80;;;2.30;;
4232;SDS011;2130;48.472;11.934;2023-01-08T14:47:51;5.73;;;1.73;;
4232;SDS011;2130;48.472;11.934;2023-01-08T14:50:22;5.40;;;1.90;;
4232;SDS011;2130;48.472;11.934;2023-01-08T14:52:53;6.80;;;1.90;;
4232;SDS011;2130;48.472;11.934;2023-01-08T14:55:26;6.40;;;2.40;;
4232;SDS011;2130;48.472;11.934;2023-01-08T14:58:07;7.20;;;2.07;;
4232;SDS011;2130;48.472;11.934;2023-01-08T15:00:39;7.67;;;2.60;;
4232;SDS011;2130;48.472;11.934;2023-01-08T15:03:21;9.90;;;2.77;;
4232;SDS011;2130;48.472;11.934;2023-01-08T15:05:58;6.33;;;2.00;;
4232;SDS011;2130;48.472;11.934;2023-01-08T15:08:34;7.20;;;2.40;;
4232;SDS011;2130;48.472;11.934;2023-01-08T15:11:05;7.23;;;2.50;;
4232;SDS011;2130;48.472;11.934;2023-01-08T15:13:41;11.50;;;3.53;;
4232;SDS011;2130;48.472;11.934;2023-01-08T15:16:15;6.53;;;2.30;;
4232;SDS011;2130;48.472;11.934;2023-01-08T15:18:45;6.27;;;2.70;;
4232;SDS011;2130;48.472;11.934;2023-01-08T15:21:16;8.80;;;2.70;;
4232;SDS011;2130;48.472;11.934;2023-01-08T15:23:56;7.57;;;2.43;;
4232;SDS011;2130;48.472;11.934;2023-01-08T15:26:27;7.73;;;2.50;;
4232;SDS011;2130;48.472;11.934;2023-01-08T15:28:57;7.13;;;2.50;;
4232;SDS011;2130;48.472;11.934;2023-01-08T15:31:27;7.97;;;2.80;;
4232;SDS011;2130;48.472;11.934;2023-01-08T15:33:58;8.20;;;2.70;;
4232;SDS011;2130;48.472;11.934;2023-01-08T15:36:27;8.67;;;3.13;;
4232;SDS011;2130;48.472;11.934;2023-01-08T15:39:02;8.30;;;3.07;;
4232;SDS011;2130;48.472;11.934;2023-01-08T15:41:33;7.43;;;2.77;;
4232;SDS011;2130;48.472;11.934;2023-01-08T15:44:21;12.77;;;2.90;;
4232;SDS011;2130;48.472;11.934;2023-01-08T15:46:51;6.00;;;2.47;;